Time,TemperatureF,DewpointF,PressureIn,WindDirection,WindDirectionDegrees,WindSpeedMPH,WindSpeedGustMPH,Humidity,HourlyPrecipIn,Conditions,Clouds,dailyrainin,SoftwareType,DateUTC
2013-07-30 00:04:00,59.2,54.7,30.20,North,0,0.0,0.0,85,0.00,,,0.00,WUHU21623XXSP,2013-07-30 04:04:00,
2013-07-30 00:09:00,59.2,54.7,30.20,North,0,0.0,0.0,85,0.00,,,0.00,WUHU21623XXSP,2013-07-30 04:09:00,
2013-07-30 00:14:00,59.4,54.9,30.20,North,0,0.0,0.0,85,0.00,,,0.00,WUHU21623XXSP,2013-07-30 04:14:00,
2013-07-30 00:19:00,59.4,54.9,30.20,North,0,0.0,0.0,85,0.00,,,0.00,WUHU21623XXSP,2013-07-30 04:19:00,
2013-07-30 00:24:00,59.5,55.0,30.20,North,0,0.0,0.0,85,0.00,,,0.00,WUHU21623XXSP,2013-07-30 04:24:00,
2013-07-30 00:29:00,59.5,55.0,30.20,North,0,0.0,0.0,85,0.00,,,0.00,WUHU21623XXSP,2013-07-30 04:29:00,
2013-07-30 00:34:00,59.5,55.0,30.20,North,0,0.0,0.0,85,0.00,,,0.00,WUHU21623XXSP,2013-07-30 04:34:00,
2013-07-30 00:39:00,59.7,55.2,30.20,North,0,0.0,0.0,85,0.00,,,0.00,WUHU21623XXSP,2013-07-30 04:39:00,
2013-07-30 00:44:00,59.5,55.0,30.21,North,0,0.0,0.0,85,0.00,,,0.00,WUHU21623XXSP,2013-07-30 04:44:00,
2013-07-30 00:49:00,59.5,55.0,30.21,North,0,0.0,0.0,85,0.00,,,0.00,WUHU21623XXSP,2013-07-30 04:49:00,
2013-07-30 00:54:00,59.5,55.0,30.21,North,0,0.0,0.0,85,0.00,,,0.00,WUHU21623XXSP,2013-07-30 04:54:00,
2013-07-30 00:59:00,59.4,54.9,30.20,North,0,0.0,0.0,85,0.00,,,0.00,WUHU21623XXSP,2013-07-30 04:59:00,
2013-07-30 01:04:00,59.2,54.9,30.21,North,0,0.0,0.0,85,0.00,,,0.00,WUHU21623XXSP,2013-07-30 05:04:00,
2013-07-30 01:09:00,59.2,54.7,30.20,North,0,0.0,0.0,85,0.00,,,0.00,WUHU21623XXSP,2013-07-30 05:09:00,
2013-07-30 01:14:00,58.8,54.3,30.20,North,0,0.0,0.0,85,0.00,,,0.00,WUHU21623XXSP,2013-07-30 05:14:00,
2013-07-30 01:19:00,58.8,54.3,30.20,North,0,0.0,0.0,85,0.00,,,0.00,WUHU21623XXSP,2013-07-30 05:19:00,
2013-07-30 01:24:00,58.8,54.3,30.20,North,0,0.0,0.0,85,0.00,,,0.00,WUHU21623XXSP,2013-07-30 05:24:00,
2013-07-30 01:29:00,58.8,54.3,30.20,North,0,0.0,0.0,85,0.00,,,0.00,WUHU21623XXSP,2013-07-30 05:29:00,
2013-07-30 01:34:00,58.8,54.3,30.20,North,0,0.0,0.0,85,0.00,,,0.00,WUHU21623XXSP,2013-07-30 05:34:00,
2013-07-30 01:39:00,58.5,54.3,30.20,North,0,0.0,0.0,86,0.00,,,0.00,WUHU21623XXSP,2013-07-30 05:39:00,
2013-07-30 01:44:00,58.3,54.3,30.20,North,0,0.0,0.0,86,0.00,,,0.00,WUHU21623XXSP,2013-07-30 05:44:00,
2013-07-30 01:49:00,58.1,53.9,30.20,North,0,0.0,0.0,86,0.00,,,0.00,WUHU21623XXSP,2013-07-30 05:49:00,
2013-07-30 01:54:00,57.9,53.7,30.20,North,0,0.0,0.0,86,0.00,,,0.00,WUHU21623XXSP,2013-07-30 05:54:00,
2013-07-30 01:59:00,57.9,53.7,30.20,North,0,0.0,0.0,86,0.00,,,0.00,WUHU21623XXSP,2013-07-30 05:59:00,
2013-07-30 02:04:00,57.6,53.4,30.20,North,0,0.0,0.0,86,0.00,,,0.00,WUHU21623XXSP,2013-07-30 06:04:00,
2013-07-30 02:09:00,57.4,53.2,30.21,North,0,0.0,0.0,86,0.00,,,0.00,WUHU21623XXSP,2013-07-30 06:09:00,
2013-07-30 02:15:00,57.2,53.0,30.21,North,0,0.0,0.0,86,0.00,,,0.00,WUHU21623XXSP,2013-07-30 06:15:00,
2013-07-30 02:20:00,57.0,52.8,30.21,North,0,0.0,0.0,86,0.00,,,0.00,WUHU21623XXSP,2013-07-30 06:20:00,
2013-07-30 02:25:00,57.0,52.8,30.21,North,0,0.0,0.0,86,0.00,,,0.00,WUHU21623XXSP,2013-07-30 06:25:00,
2013-07-30 02:30:00,56.8,53.0,30.21,North,0,0.0,0.0,87,0.00,,,0.00,WUHU21623XXSP,2013-07-30 06:30:00,
2013-07-30 02:35:00,56.5,52.6,30.21,North,0,0.0,0.0,87,0.00,,,0.00,WUHU21623XXSP,2013-07-30 06:35:00,
2013-07-30 02:40:00,56.3,52.4,30.21,North,0,0.0,0.0,87,0.00,,,0.00,WUHU21623XXSP,2013-07-30 06:40:00,
2013-07-30 02:45:00,56.1,52.3,30.21,North,0,0.0,0.0,87,0.00,,,0.00,WUHU21623XXSP,2013-07-30 06:45:00,
2013-07-30 02:50:00,55.9,52.1,30.21,North,0,0.0,0.0,87,0.00,,,0.00,WUHU21623XXSP,2013-07-30 06:50:00,
2013-07-30 02:55:00,55.9,52.1,30.21,North,0,0.0,0.0,87,0.00,,,0.00,WUHU21623XXSP,2013-07-30 06:55:00,
2013-07-30 03:00:00,55.8,51.9,30.21,North,0,0.0,0.0,87,0.00,,,0.00,WUHU21623XXSP,2013-07-30 07:00:00,
2013-07-30 03:05:00,55.4,51.9,30.20,North,0,0.0,0.0,88,0.00,,,0.00,WUHU21623XXSP,2013-07-30 07:05:00,
2013-07-30 03:10:00,55.2,51.7,30.20,North,0,0.0,0.0,88,0.00,,,0.00,WUHU21623XXSP,2013-07-30 07:10:00,
2013-07-30 03:15:00,55.2,51.7,30.21,North,0,0.0,0.0,88,0.00,,,0.00,WUHU21623XXSP,2013-07-30 07:15:00,
2013-07-30 03:20:00,55.2,51.5,30.21,North,0,0.0,0.0,88,0.00,,,0.00,WUHU21623XXSP,2013-07-30 07:20:00,
2013-07-30 03:25:00,55.0,51.5,30.20,North,0,0.0,0.0,88,0.00,,,0.00,WUHU21623XXSP,2013-07-30 07:25:00,
2013-07-30 03:30:00,55.0,51.5,30.21,North,0,0.0,0.0,88,0.00,,,0.00,WUHU21623XXSP,2013-07-30 07:30:00,
2013-07-30 03:35:00,54.9,51.5,30.21,North,0,0.0,0.0,88,0.00,,,0.00,WUHU21623XXSP,2013-07-30 07:35:00,
2013-07-30 03:40:00,54.9,51.3,30.21,North,0,0.0,0.0,88,0.00,,,0.00,WUHU21623XXSP,2013-07-30 07:40:00,
2013-07-30 03:45:00,54.9,51.3,30.21,North,0,0.0,0.0,88,0.00,,,0.00,WUHU21623XXSP,2013-07-30 07:45:00,
2013-07-30 03:50:00,54.7,51.2,30.21,North,0,0.0,0.0,88,0.00,,,0.00,WUHU21623XXSP,2013-07-30 07:50:00,
2013-07-30 03:55:00,54.7,51.2,30.21,North,0,0.0,0.0,88,0.00,,,0.00,WUHU21623XXSP,2013-07-30 07:55:00,
2013-07-30 04:00:00,54.7,51.2,30.21,North,0,0.0,0.0,88,0.00,,,0.00,WUHU21623XXSP,2013-07-30 08:00:00,
2013-07-30 04:05:00,54.7,51.2,30.21,North,0,0.0,0.0,88,0.00,,,0.00,WUHU21623XXSP,2013-07-30 08:05:00,
2013-07-30 04:10:00,54.5,51.3,30.21,North,0,0.0,0.0,89,0.00,,,0.00,WUHU21623XXSP,2013-07-30 08:10:00,
2013-07-30 04:15:00,54.5,51.3,30.21,North,0,0.0,0.0,89,0.00,,,0.00,WUHU21623XXSP,2013-07-30 08:15:00,
2013-07-30 04:20:00,54.3,51.1,30.21,North,0,0.0,0.0,89,0.00,,,0.00,WUHU21623XXSP,2013-07-30 08:20:00,
2013-07-30 04:25:00,54.3,51.1,30.21,North,0,0.0,0.0,89,0.00,,,0.00,WUHU21623XXSP,2013-07-30 08:25:00,
2013-07-30 04:30:00,54.1,50.9,30.21,North,0,0.0,0.0,89,0.00,,,0.00,WUHU21623XXSP,2013-07-30 08:30:00,
2013-07-30 04:35:00,54.1,50.9,30.20,North,0,0.0,0.0,89,0.00,,,0.00,WUHU21623XXSP,2013-07-30 08:35:00,
2013-07-30 04:40:00,54.1,50.9,30.20,North,0,0.0,0.0,89,0.00,,,0.00,WUHU21623XXSP,2013-07-30 08:40:00,
2013-07-30 04:45:00,54.0,50.8,30.21,North,0,0.0,0.0,89,0.00,,,0.00,WUHU21623XXSP,2013-07-30 08:45:00,
2013-07-30 04:50:00,54.0,50.8,30.21,North,0,0.0,0.0,89,0.00,,,0.00,WUHU21623XXSP,2013-07-30 08:50:00,
2013-07-30 04:55:00,54.0,50.8,30.21,North,0,0.0,0.0,89,0.00,,,0.00,WUHU21623XXSP,2013-07-30 08:55:00,
2013-07-30 05:00:00,53.8,50.8,30.21,North,0,0.0,0.0,89,0.00,,,0.00,WUHU21623XXSP,2013-07-30 09:00:00,
2013-07-30 05:05:00,53.8,50.6,30.21,North,0,0.0,0.0,89,0.00,,,0.00,WUHU21623XXSP,2013-07-30 09:05:00,
2013-07-30 05:10:00,53.8,50.9,30.21,North,0,0.0,0.0,90,0.00,,,0.00,WUHU21623XXSP,2013-07-30 09:10:00,
2013-07-30 05:15:00,53.8,50.9,30.21,North,0,0.0,0.0,90,0.00,,,0.00,WUHU21623XXSP,2013-07-30 09:15:00,
2013-07-30 05:20:00,53.8,50.9,30.22,North,0,0.0,0.0,90,0.00,,,0.00,WUHU21623XXSP,2013-07-30 09:20:00,
2013-07-30 05:25:00,53.8,50.6,30.22,North,0,0.0,0.0,89,0.00,,,0.00,WUHU21623XXSP,2013-07-30 09:25:00,
2013-07-30 05:30:00,53.8,50.6,30.22,North,0,0.0,0.0,89,0.00,,,0.00,WUHU21623XXSP,2013-07-30 09:30:00,
2013-07-30 05:35:00,53.8,50.6,30.22,North,0,0.0,0.0,89,0.00,,,0.00,WUHU21623XXSP,2013-07-30 09:35:00,
2013-07-30 05:40:00,53.4,50.2,30.22,North,0,0.0,0.0,89,0.00,,,0.00,WUHU21623XXSP,2013-07-30 09:40:00,
2013-07-30 05:45:00,53.6,50.4,30.22,North,0,0.0,0.0,89,0.00,,,0.00,WUHU21623XXSP,2013-07-30 09:45:00,
2013-07-30 05:50:00,53.4,50.5,30.22,North,0,0.0,0.0,90,0.00,,,0.00,WUHU21623XXSP,2013-07-30 09:50:00,
2013-07-30 05:55:00,53.4,50.5,30.22,North,0,0.0,0.0,90,0.00,,,0.00,WUHU21623XXSP,2013-07-30 09:55:00,
2013-07-30 06:00:00,53.4,50.5,30.22,North,0,0.0,0.0,90,0.00,,,0.00,WUHU21623XXSP,2013-07-30 10:00:00,
2013-07-30 06:05:00,53.4,50.5,30.22,North,0,0.0,0.0,90,0.00,,,0.00,WUHU21623XXSP,2013-07-30 10:05:00,
2013-07-30 06:10:00,53.4,50.5,30.22,North,0,0.0,0.0,90,0.00,,,0.00,WUHU21623XXSP,2013-07-30 10:10:00,
2013-07-30 06:15:00,53.4,50.5,30.22,North,0,0.0,0.0,90,0.00,,,0.00,WUHU21623XXSP,2013-07-30 10:15:00,
2013-07-30 06:20:00,53.4,50.5,30.22,North,0,0.0,0.0,90,0.00,,,0.00,WUHU21623XXSP,2013-07-30 10:20:00,
2013-07-30 06:25:00,53.4,50.5,30.22,North,0,0.0,0.0,90,0.00,,,0.00,WUHU21623XXSP,2013-07-30 10:25:00,
2013-07-30 06:30:00,53.2,50.5,30.22,North,0,0.0,0.0,90,0.00,,,0.00,WUHU21623XXSP,2013-07-30 10:30:00,
2013-07-30 06:35:00,53.4,50.5,30.22,North,0,0.0,0.0,90,0.00,,,0.00,WUHU21623XXSP,2013-07-30 10:35:00,
2013-07-30 06:40:00,53.4,50.5,30.22,North,0,0.0,0.0,90,0.00,,,0.00,WUHU21623XXSP,2013-07-30 10:40:00,
2013-07-30 06:45:00,53.2,50.6,30.23,North,0,0.0,0.0,91,0.00,,,0.00,WUHU21623XXSP,2013-07-30 10:45:00,
2013-07-30 06:50:00,53.2,50.4,30.23,North,0,0.0,0.0,90,0.00,,,0.00,WUHU21623XXSP,2013-07-30 10:50:00,
2013-07-30 06:55:00,53.2,50.6,30.23,North,0,0.0,0.0,91,0.00,,,0.00,WUHU21623XXSP,2013-07-30 10:55:00,
2013-07-30 07:00:00,53.2,50.6,30.23,North,0,0.0,0.0,91,0.00,,,0.00,WUHU21623XXSP,2013-07-30 11:00:00,
2013-07-30 07:05:00,53.2,50.6,30.23,North,0,0.0,0.0,91,0.00,,,0.00,WUHU21623XXSP,2013-07-30 11:05:00,
2013-07-30 07:10:00,53.2,50.6,30.23,North,0,0.0,0.0,91,0.00,,,0.00,WUHU21623XXSP,2013-07-30 11:10:00,
2013-07-30 07:15:00,53.2,50.6,30.23,North,0,0.0,0.0,91,0.00,,,0.00,WUHU21623XXSP,2013-07-30 11:15:00,
2013-07-30 07:20:00,53.4,50.8,30.23,North,0,0.0,0.0,91,0.00,,,0.00,WUHU21623XXSP,2013-07-30 11:20:00,
2013-07-30 07:25:00,53.4,50.8,30.23,North,0,0.0,0.0,91,0.00,,,0.00,WUHU21623XXSP,2013-07-30 11:25:00,
2013-07-30 07:30:00,53.4,50.8,30.24,North,0,0.0,0.0,91,0.00,,,0.00,WUHU21623XXSP,2013-07-30 11:30:00,
2013-07-30 07:35:00,53.8,51.2,30.24,North,0,0.0,0.0,91,0.00,,,0.00,WUHU21623XXSP,2013-07-30 11:35:00,
2013-07-30 07:40:00,53.8,51.2,30.24,North,0,0.0,0.0,91,0.00,,,0.00,WUHU21623XXSP,2013-07-30 11:40:00,
2013-07-30 07:45:00,54.1,51.5,30.24,North,0,0.0,0.0,91,0.00,,,0.00,WUHU21623XXSP,2013-07-30 11:45:00,
2013-07-30 07:50:00,54.1,51.5,30.24,North,0,0.0,0.0,91,0.00,,,0.00,WUHU21623XXSP,2013-07-30 11:50:00,
2013-07-30 07:55:00,54.5,51.9,30.24,North,0,0.0,0.0,91,0.00,,,0.00,WUHU21623XXSP,2013-07-30 11:55:00,
2013-07-30 08:00:00,55.0,52.4,30.24,North,0,0.0,0.0,91,0.00,,,0.00,WUHU21623XXSP,2013-07-30 12:00:00,
2013-07-30 08:05:00,55.2,52.6,30.24,North,0,0.0,0.0,92,0.00,,,0.00,WUHU21623XXSP,2013-07-30 12:05:00,
2013-07-30 08:10:00,55.6,52.9,30.24,North,0,0.0,0.0,92,0.00,,,0.00,WUHU21623XXSP,2013-07-30 12:10:00,
2013-07-30 08:15:00,55.9,53.6,30.24,North,0,0.0,0.0,92,0.00,,,0.00,WUHU21623XXSP,2013-07-30 12:15:00,
2013-07-30 08:20:00,56.3,54.0,30.24,North,0,0.0,0.0,92,0.00,,,0.00,WUHU21623XXSP,2013-07-30 12:20:00,
2013-07-30 08:25:00,56.8,54.5,30.24,North,0,0.0,0.0,92,0.00,,,0.00,WUHU21623XXSP,2013-07-30 12:25:00,
2013-07-30 08:30:00,57.4,54.4,30.25,North,0,0.0,0.0,91,0.00,,,0.00,WUHU21623XXSP,2013-07-30 12:30:00,
2013-07-30 08:35:00,57.7,55.1,30.25,North,0,0.0,0.0,91,0.00,,,0.00,WUHU21623XXSP,2013-07-30 12:35:00,
2013-07-30 08:40:00,57.9,55.6,30.25,North,0,0.0,0.0,92,0.00,,,0.00,WUHU21623XXSP,2013-07-30 12:40:00,
2013-07-30 08:45:00,58.3,56.0,30.25,North,0,0.0,0.0,92,0.00,,,0.00,WUHU21623XXSP,2013-07-30 12:45:00,
2013-07-30 08:50:00,58.8,56.5,30.25,North,0,0.0,0.0,92,0.00,,,0.00,WUHU21623XXSP,2013-07-30 12:50:00,
2013-07-30 08:55:00,58.8,56.5,30.25,North,0,0.0,0.0,92,0.00,,,0.00,WUHU21623XXSP,2013-07-30 12:55:00,
2013-07-30 09:00:00,59.4,56.7,30.25,North,0,0.0,0.0,92,0.00,,,0.00,WUHU21623XXSP,2013-07-30 13:00:00,
2013-07-30 09:05:00,59.7,57.2,30.25,North,0,0.0,0.0,92,0.00,,,0.00,WUHU21623XXSP,2013-07-30 13:05:00,
2013-07-30 09:10:00,60.1,57.6,30.25,North,0,0.0,0.0,92,0.00,,,0.00,WUHU21623XXSP,2013-07-30 13:10:00,
2013-07-30 09:15:00,60.6,58.3,30.25,North,0,0.0,0.0,92,0.00,,,0.00,WUHU21623XXSP,2013-07-30 13:15:00,
2013-07-30 09:20:00,61.0,58.7,30.25,North,0,0.0,0.0,92,0.00,,,0.00,WUHU21623XXSP,2013-07-30 13:20:00,
2013-07-30 09:25:00,61.3,58.7,30.25,North,0,0.0,0.0,92,0.00,,,0.00,WUHU21623XXSP,2013-07-30 13:25:00,
2013-07-30 09:30:00,61.9,59.2,30.25,North,0,0.0,0.0,92,0.00,,,0.00,WUHU21623XXSP,2013-07-30 13:30:00,
2013-07-30 09:35:00,62.2,59.9,30.25,North,0,0.0,0.0,92,0.00,,,0.00,WUHU21623XXSP,2013-07-30 13:35:00,
2013-07-30 09:40:00,62.4,60.1,30.24,North,0,0.0,0.0,92,0.00,,,0.00,WUHU21623XXSP,2013-07-30 13:40:00,
2013-07-30 09:45:00,63.1,60.5,30.24,North,0,0.0,0.0,92,0.00,,,0.00,WUHU21623XXSP,2013-07-30 13:45:00,
2013-07-30 09:50:00,63.3,60.7,30.25,North,0,0.0,0.0,91,0.00,,,0.00,WUHU21623XXSP,2013-07-30 13:50:00,
2013-07-30 09:55:00,63.7,61.1,30.25,North,0,0.0,0.0,91,0.00,,,0.00,WUHU21623XXSP,2013-07-30 13:55:00,
2013-07-30 10:00:00,64.0,61.2,30.24,North,0,0.0,0.0,90,0.00,,,0.00,WUHU21623XXSP,2013-07-30 14:00:00,
2013-07-30 10:05:00,64.6,61.3,30.24,North,0,0.0,0.0,90,0.00,,,0.00,WUHU21623XXSP,2013-07-30 14:05:00,
2013-07-30 10:10:00,64.9,61.5,30.24,North,0,0.0,0.0,89,0.00,,,0.00,WUHU21623XXSP,2013-07-30 14:10:00,
2013-07-30 10:15:00,65.3,61.7,30.24,North,0,0.0,0.0,88,0.00,,,0.00,WUHU21623XXSP,2013-07-30 14:15:00,
2013-07-30 10:20:00,65.5,61.7,30.24,North,0,0.0,0.0,88,0.00,,,0.00,WUHU21623XXSP,2013-07-30 14:20:00,
2013-07-30 10:25:00,65.8,61.8,30.24,North,0,0.0,0.0,87,0.00,,,0.00,WUHU21623XXSP,2013-07-30 14:25:00,
2013-07-30 10:30:00,66.2,62.2,30.25,North,0,0.0,0.0,87,0.00,,,0.00,WUHU21623XXSP,2013-07-30 14:30:00,
2013-07-30 10:35:00,66.4,62.0,30.24,North,0,0.0,0.0,86,0.00,,,0.00,WUHU21623XXSP,2013-07-30 14:35:00,
2013-07-30 10:40:00,66.7,62.4,30.24,North,0,0.0,0.0,86,0.00,,,0.00,WUHU21623XXSP,2013-07-30 14:40:00,
2013-07-30 10:45:00,66.9,62.6,30.24,North,0,0.0,0.0,86,0.00,,,0.00,WUHU21623XXSP,2013-07-30 14:45:00,
2013-07-30 10:50:00,66.9,62.2,30.24,North,0,0.0,0.0,85,0.00,,,0.00,WUHU21623XXSP,2013-07-30 14:50:00,
2013-07-30 10:55:00,66.9,61.9,30.24,North,0,0.0,0.0,84,0.00,,,0.00,WUHU21623XXSP,2013-07-30 14:55:00,
2013-07-30 11:00:00,67.3,61.8,30.24,North,0,0.0,0.0,83,0.00,,,0.00,WUHU21623XXSP,2013-07-30 15:00:00,
2013-07-30 11:05:00,67.6,62.0,30.24,North,0,0.0,0.0,83,0.00,,,0.00,WUHU21623XXSP,2013-07-30 15:05:00,
2013-07-30 11:10:00,67.6,62.0,30.24,North,0,0.0,0.0,82,0.00,,,0.00,WUHU21623XXSP,2013-07-30 15:10:00,
2013-07-30 11:15:00,68.0,61.8,30.24,North,0,0.0,0.0,81,0.00,,,0.00,WUHU21623XXSP,2013-07-30 15:15:00,
2013-07-30 11:20:00,68.4,62.3,30.24,North,0,0.0,0.0,81,0.00,,,0.00,WUHU21623XXSP,2013-07-30 15:20:00,
2013-07-30 11:25:00,68.5,62.2,30.24,North,0,0.0,0.0,80,0.00,,,0.00,WUHU21623XXSP,2013-07-30 15:25:00,
2013-07-30 11:30:00,69.1,62.0,30.24,North,0,0.0,0.0,80,0.00,,,0.00,WUHU21623XXSP,2013-07-30 15:30:00,
2013-07-30 11:35:00,69.4,62.6,30.24,North,0,0.0,0.0,79,0.00,,,0.00,WUHU21623XXSP,2013-07-30 15:35:00,
2013-07-30 11:45:00,69.6,62.0,30.24,North,0,0.0,0.0,77,0.00,,,0.00,WUHU21623XXSP,2013-07-30 15:45:00,
2013-07-30 11:50:00,69.6,62.0,30.24,North,0,0.0,0.0,77,0.00,,,0.00,WUHU21623XXSP,2013-07-30 15:50:00,
2013-07-30 11:55:00,69.6,61.6,30.23,North,0,0.0,0.0,76,0.00,,,0.00,WUHU21623XXSP,2013-07-30 15:55:00,
2013-07-30 12:00:00,69.1,61.3,30.23,North,0,0.0,0.0,76,0.00,,,0.00,WUHU21623XXSP,2013-07-30 16:00:00,
2013-07-30 12:05:00,69.3,61.2,30.23,North,0,0.0,0.0,76,0.00,,,0.00,WUHU21623XXSP,2013-07-30 16:05:00,
2013-07-30 12:10:00,69.8,61.8,30.24,North,0,0.0,0.0,76,0.00,,,0.00,WUHU21623XXSP,2013-07-30 16:10:00,
2013-07-30 12:15:00,69.6,60.9,30.23,North,0,0.0,0.0,74,0.00,,,0.00,WUHU21623XXSP,2013-07-30 16:15:00,
2013-07-30 12:20:00,69.4,61.1,30.23,North,0,0.0,0.0,75,0.00,,,0.00,WUHU21623XXSP,2013-07-30 16:20:00,
2013-07-30 12:25:00,70.9,62.9,30.23,North,0,0.0,0.0,76,0.00,,,0.00,WUHU21623XXSP,2013-07-30 16:25:00,
2013-07-30 12:30:00,71.8,61.9,30.22,North,0,0.0,0.0,73,0.00,,,0.00,WUHU21623XXSP,2013-07-30 16:30:00,
2013-07-30 12:35:00,72.3,62.3,30.22,North,0,0.0,0.0,71,0.00,,,0.00,WUHU21623XXSP,2013-07-30 16:35:00,
2013-07-30 12:40:00,73.0,62.0,30.22,North,0,0.0,0.0,71,0.00,,,0.00,WUHU21623XXSP,2013-07-30 16:40:00,
2013-07-30 12:45:00,72.3,62.1,30.22,North,0,0.0,0.0,70,0.00,,,0.00,WUHU21623XXSP,2013-07-30 16:45:00,
2013-07-30 12:50:00,72.3,63.2,30.22,North,0,0.0,0.0,73,0.00,,,0.00,WUHU21623XXSP,2013-07-30 16:50:00,
2013-07-30 12:55:00,72.0,62.3,30.22,North,0,0.0,0.0,72,0.00,,,0.00,WUHU21623XXSP,2013-07-30 16:55:00,
2013-07-30 13:00:00,72.9,63.7,30.22,North,0,0.0,0.0,73,0.00,,,0.00,WUHU21623XXSP,2013-07-30 17:00:00,
2013-07-30 13:05:00,72.5,60.9,30.22,North,0,0.0,0.0,67,0.00,,,0.00,WUHU21623XXSP,2013-07-30 17:05:00,
2013-07-30 13:10:00,72.1,61.0,30.22,North,0,0.0,0.0,68,0.00,,,0.00,WUHU21623XXSP,2013-07-30 17:10:00,
2013-07-30 13:15:00,72.3,60.7,30.22,North,0,0.0,0.0,67,0.00,,,0.00,WUHU21623XXSP,2013-07-30 17:15:00,
2013-07-30 13:20:00,72.9,59.9,30.23,North,0,0.0,0.0,64,0.00,,,0.00,WUHU21623XXSP,2013-07-30 17:20:00,
2013-07-30 13:25:00,73.4,61.0,30.22,North,0,0.0,0.0,70,0.00,,,0.00,WUHU21623XXSP,2013-07-30 17:25:00,
2013-07-30 13:30:00,73.4,60.4,30.22,North,0,0.0,0.0,64,0.00,,,0.00,WUHU21623XXSP,2013-07-30 17:30:00,
2013-07-30 13:35:00,73.2,62.5,30.22,North,0,0.0,0.0,69,0.00,,,0.00,WUHU21623XXSP,2013-07-30 17:35:00,
2013-07-30 13:40:00,73.9,61.5,30.22,North,0,0.0,0.0,69,0.00,,,0.00,WUHU21623XXSP,2013-07-30 17:40:00,
2013-07-30 13:45:00,73.9,60.5,30.21,North,0,0.0,0.0,63,0.00,,,0.00,WUHU21623XXSP,2013-07-30 17:45:00,
2013-07-30 13:50:00,73.9,59.9,30.21,North,0,0.0,0.0,65,0.00,,,0.00,WUHU21623XXSP,2013-07-30 17:50:00,
2013-07-30 13:55:00,73.8,61.2,30.21,North,0,0.0,0.0,65,0.00,,,0.00,WUHU21623XXSP,2013-07-30 17:55:00,
2013-07-30 14:00:00,73.6,60.2,30.21,North,0,0.0,0.0,63,0.00,,,0.00,WUHU21623XXSP,2013-07-30 18:00:00,
2013-07-30 14:05:00,73.8,61.2,30.21,North,0,0.0,0.0,65,0.00,,,0.00,WUHU21623XXSP,2013-07-30 18:05:00,
2013-07-30 14:10:00,73.9,60.9,30.21,North,0,0.0,0.0,64,0.00,,,0.00,WUHU21623XXSP,2013-07-30 18:10:00,
2013-07-30 14:15:00,73.9,61.4,30.21,North,0,0.0,0.0,65,0.00,,,0.00,WUHU21623XXSP,2013-07-30 18:15:00,
2013-07-30 14:20:00,73.9,60.1,30.20,North,0,0.0,0.0,62,0.00,,,0.00,WUHU21623XXSP,2013-07-30 18:20:00,
2013-07-30 14:25:00,73.6,61.1,30.20,North,0,0.0,0.0,65,0.00,,,0.00,WUHU21623XXSP,2013-07-30 18:25:00,
2013-07-30 14:30:00,73.8,61.2,30.20,North,0,0.0,0.0,65,0.00,,,0.00,WUHU21623XXSP,2013-07-30 18:30:00,
2013-07-30 14:35:00,73.9,61.4,30.20,North,0,0.0,0.0,65,0.00,,,0.00,WUHU21623XXSP,2013-07-30 18:35:00,
2013-07-30 14:40:00,73.9,61.4,30.20,North,0,0.0,0.0,65,0.00,,,0.00,WUHU21623XXSP,2013-07-30 18:40:00,
2013-07-30 14:45:00,73.9,60.9,30.20,North,0,0.0,0.0,64,0.00,,,0.00,WUHU21623XXSP,2013-07-30 18:45:00,
2013-07-30 14:50:00,73.9,60.5,30.20,North,0,0.0,0.0,63,0.00,,,0.00,WUHU21623XXSP,2013-07-30 18:50:00,
2013-07-30 14:55:00,73.9,60.1,30.20,North,0,0.0,0.0,62,0.00,,,0.00,WUHU21623XXSP,2013-07-30 18:55:00,
2013-07-30 15:00:00,73.6,59.7,30.20,North,0,0.0,0.0,62,0.00,,,0.00,WUHU21623XXSP,2013-07-30 19:00:00,
2013-07-30 15:05:00,73.2,59.8,30.19,North,0,0.0,0.0,63,0.00,,,0.00,WUHU21623XXSP,2013-07-30 19:05:00,
2013-07-30 15:10:00,73.2,60.3,30.19,North,0,0.0,0.0,64,0.00,,,0.00,WUHU21623XXSP,2013-07-30 19:10:00,
2013-07-30 15:15:00,72.7,60.4,30.19,North,0,0.0,0.0,66,0.00,,,0.00,WUHU21623XXSP,2013-07-30 19:15:00,
2013-07-30 15:20:00,72.5,60.5,30.19,North,0,0.0,0.0,66,0.00,,,0.00,WUHU21623XXSP,2013-07-30 19:20:00,
2013-07-30 15:25:00,72.5,60.9,30.19,North,0,0.0,0.0,66,0.00,,,0.00,WUHU21623XXSP,2013-07-30 19:25:00,
2013-07-30 15:30:00,72.3,59.9,30.19,North,0,0.0,0.0,65,0.00,,,0.00,WUHU21623XXSP,2013-07-30 19:30:00,
2013-07-30 15:35:00,72.3,59.9,30.19,North,0,0.0,0.0,65,0.00,,,0.00,WUHU21623XXSP,2013-07-30 19:35:00,
2013-07-30 15:40:00,72.5,60.0,30.19,North,0,0.0,0.0,65,0.00,,,0.00,WUHU21623XXSP,2013-07-30 19:40:00,
2013-07-30 15:45:00,72.7,60.2,30.19,North,0,0.0,0.0,65,0.00,,,0.00,WUHU21623XXSP,2013-07-30 19:45:00,
2013-07-30 15:50:00,73.0,60.5,30.18,North,0,0.0,0.0,65,0.00,,,0.00,WUHU21623XXSP,2013-07-30 19:50:00,
2013-07-30 15:55:00,73.2,60.7,30.18,North,0,0.0,0.0,65,0.00,,,0.00,WUHU21623XXSP,2013-07-30 19:55:00,
2013-07-30 16:00:00,73.2,60.7,30.18,North,0,0.0,0.0,65,0.00,,,0.00,WUHU21623XXSP,2013-07-30 20:00:00,
2013-07-30 16:05:00,73.2,60.3,30.18,North,0,0.0,0.0,64,0.00,,,0.00,WUHU21623XXSP,2013-07-30 20:05:00,
2013-07-30 16:10:00,73.2,60.7,30.17,North,0,0.0,0.0,65,0.00,,,0.00,WUHU21623XXSP,2013-07-30 20:10:00,
2013-07-30 16:15:00,73.2,60.7,30.18,North,0,0.0,0.0,65,0.00,,,0.00,WUHU21623XXSP,2013-07-30 20:15:00,
2013-07-30 16:20:00,73.2,60.7,30.17,North,0,0.0,0.0,65,0.00,,,0.00,WUHU21623XXSP,2013-07-30 20:20:00,
2013-07-30 16:25:00,73.2,60.7,30.17,North,0,0.0,0.0,65,0.00,,,0.00,WUHU21623XXSP,2013-07-30 20:25:00,
2013-07-30 16:30:00,73.2,60.3,30.17,North,0,0.0,0.0,64,0.00,,,0.00,WUHU21623XXSP,2013-07-30 20:30:00,
2013-07-30 16:35:00,73.2,60.7,30.17,North,0,0.0,0.0,65,0.00,,,0.00,WUHU21623XXSP,2013-07-30 20:35:00,
2013-07-30 16:40:00,73.2,60.7,30.17,North,0,0.0,0.0,65,0.00,,,0.00,WUHU21623XXSP,2013-07-30 20:40:00,
2013-07-30 16:45:00,73.4,61.2,30.16,North,0,0.0,0.0,66,0.00,,,0.00,WUHU21623XXSP,2013-07-30 20:45:00,
2013-07-30 16:50:00,73.6,61.1,30.16,North,0,0.0,0.0,65,0.00,,,0.00,WUHU21623XXSP,2013-07-30 20:50:00,
2013-07-30 16:55:00,73.9,60.9,30.17,North,0,0.0,0.0,64,0.00,,,0.00,WUHU21623XXSP,2013-07-30 20:55:00,
2013-07-30 17:00:00,73.9,60.9,30.17,North,0,0.0,0.0,64,0.00,,,0.00,WUHU21623XXSP,2013-07-30 21:00:00,
2013-07-30 17:05:00,74.1,61.1,30.16,North,0,0.0,0.0,64,0.00,,,0.00,WUHU21623XXSP,2013-07-30 21:05:00,
2013-07-30 17:10:00,74.1,61.1,30.16,North,0,0.0,0.0,64,0.00,,,0.00,WUHU21623XXSP,2013-07-30 21:10:00,
2013-07-30 17:15:00,74.1,61.1,30.16,North,0,0.0,0.0,64,0.00,,,0.00,WUHU21623XXSP,2013-07-30 21:15:00,
2013-07-30 17:20:00,73.9,60.9,30.16,North,0,0.0,0.0,64,0.00,,,0.00,WUHU21623XXSP,2013-07-30 21:20:00,
2013-07-30 17:25:00,73.9,60.5,30.16,North,0,0.0,0.0,63,0.00,,,0.00,WUHU21623XXSP,2013-07-30 21:25:00,
2013-07-30 17:30:00,73.9,60.5,30.16,North,0,0.0,0.0,63,0.00,,,0.00,WUHU21623XXSP,2013-07-30 21:30:00,
2013-07-30 17:35:00,73.8,60.3,30.16,North,0,0.0,0.0,63,0.00,,,0.00,WUHU21623XXSP,2013-07-30 21:35:00,
2013-07-30 17:40:00,73.6,60.2,30.16,North,0,0.0,0.0,63,0.00,,,0.00,WUHU21623XXSP,2013-07-30 21:40:00,
2013-07-30 17:45:00,73.6,60.2,30.16,North,0,0.0,0.0,63,0.00,,,0.00,WUHU21623XXSP,2013-07-30 21:45:00,
2013-07-30 17:50:00,73.4,60.4,30.17,North,0,0.0,0.0,64,0.00,,,0.00,WUHU21623XXSP,2013-07-30 21:50:00,
2013-07-30 17:55:00,73.2,60.0,30.16,North,0,0.0,0.0,63,0.00,,,0.00,WUHU21623XXSP,2013-07-30 21:55:00,
2013-07-30 18:00:00,73.2,59.8,30.16,North,0,0.0,0.0,63,0.00,,,0.00,WUHU21623XXSP,2013-07-30 22:00:00,
2013-07-30 18:05:00,73.2,59.8,30.16,North,0,0.0,0.0,63,0.00,,,0.00,WUHU21623XXSP,2013-07-30 22:05:00,
2013-07-30 18:10:00,73.2,60.3,30.16,North,0,0.0,0.0,64,0.00,,,0.00,WUHU21623XXSP,2013-07-30 22:10:00,
2013-07-30 18:15:00,73.2,60.3,30.16,North,0,0.0,0.0,64,0.00,,,0.00,WUHU21623XXSP,2013-07-30 22:15:00,
2013-07-30 18:20:00,73.2,60.3,30.16,North,0,0.0,0.0,64,0.00,,,0.00,WUHU21623XXSP,2013-07-30 22:20:00,
2013-07-30 18:25:00,73.0,60.1,30.15,North,0,0.0,0.0,64,0.00,,,0.00,WUHU21623XXSP,2013-07-30 22:25:00,
2013-07-30 18:30:00,73.0,60.1,30.15,North,0,0.0,0.0,64,0.00,,,0.00,WUHU21623XXSP,2013-07-30 22:30:00,
2013-07-30 18:35:00,73.0,60.1,30.15,North,0,0.0,0.0,64,0.00,,,0.00,WUHU21623XXSP,2013-07-30 22:35:00,
2013-07-30 18:40:00,72.7,59.8,30.15,North,0,0.0,0.0,64,0.00,,,0.00,WUHU21623XXSP,2013-07-30 22:40:00,
2013-07-30 18:45:00,72.7,59.8,30.15,North,0,0.0,0.0,64,0.00,,,0.00,WUHU21623XXSP,2013-07-30 22:45:00,
2013-07-30 18:50:00,72.7,59.8,30.15,North,0,0.0,0.0,64,0.00,,,0.00,WUHU21623XXSP,2013-07-30 22:50:00,
2013-07-30 18:55:00,72.7,59.3,30.15,North,0,0.0,0.0,63,0.00,,,0.00,WUHU21623XXSP,2013-07-30 22:55:00,
2013-07-30 19:00:00,72.5,59.3,30.15,North,0,0.0,0.0,64,0.00,,,0.00,WUHU21623XXSP,2013-07-30 23:00:00,
2013-07-30 19:05:00,72.7,59.6,30.15,North,0,0.0,0.0,64,0.00,,,0.00,WUHU21623XXSP,2013-07-30 23:05:00,
2013-07-30 19:11:00,72.5,60.0,30.15,North,0,0.0,0.0,65,0.00,,,0.00,WUHU21623XXSP,2013-07-30 23:11:00,
2013-07-30 19:16:00,72.3,59.9,30.15,North,0,0.0,0.0,65,0.00,,,0.00,WUHU21623XXSP,2013-07-30 23:16:00,
2013-07-30 19:21:00,72.3,59.9,30.15,North,0,0.0,0.0,65,0.00,,,0.00,WUHU21623XXSP,2013-07-30 23:21:00,
2013-07-30 19:26:00,72.1,60.1,30.15,North,0,0.0,0.0,66,0.00,,,0.00,WUHU21623XXSP,2013-07-30 23:26:00,
2013-07-30 19:31:00,72.1,59.7,30.15,North,0,0.0,0.0,65,0.00,,,0.00,WUHU21623XXSP,2013-07-30 23:31:00,
2013-07-30 19:36:00,72.1,60.1,30.15,North,0,0.0,0.0,66,0.00,,,0.00,WUHU21623XXSP,2013-07-30 23:36:00,
2013-07-30 19:41:00,72.1,60.1,30.15,North,0,0.0,0.0,66,0.00,,,0.00,WUHU21623XXSP,2013-07-30 23:41:00,
2013-07-30 19:46:00,71.8,59.8,30.15,North,0,0.0,0.0,66,0.00,,,0.00,WUHU21623XXSP,2013-07-30 23:46:00,
2013-07-30 19:51:00,71.8,59.8,30.15,North,0,0.0,0.0,66,0.00,,,0.00,WUHU21623XXSP,2013-07-30 23:51:00,
2013-07-30 19:56:00,71.8,60.0,30.15,North,0,0.0,0.0,67,0.00,,,0.00,WUHU21623XXSP,2013-07-30 23:56:00,
2013-07-30 20:01:00,71.4,59.9,30.15,North,0,0.0,0.0,67,0.00,,,0.00,WUHU21623XXSP,2013-07-31 00:01:00,
2013-07-30 20:06:00,71.4,60.3,30.15,North,0,0.0,0.0,68,0.00,,,0.00,WUHU21623XXSP,2013-07-31 00:06:00,
2013-07-30 20:11:00,71.4,60.3,30.15,North,0,0.0,0.0,68,0.00,,,0.00,WUHU21623XXSP,2013-07-31 00:11:00,
2013-07-30 20:16:00,71.2,60.1,30.16,North,0,0.0,0.0,68,0.00,,,0.00,WUHU21623XXSP,2013-07-31 00:16:00,
2013-07-30 20:21:00,71.2,60.1,30.15,North,0,0.0,0.0,68,0.00,,,0.00,WUHU21623XXSP,2013-07-31 00:21:00,
2013-07-30 20:26:00,70.9,59.8,30.15,North,0,0.0,0.0,68,0.00,,,0.00,WUHU21623XXSP,2013-07-31 00:26:00,
2013-07-30 20:31:00,70.9,59.8,30.15,North,0,0.0,0.0,69,0.00,,,0.00,WUHU21623XXSP,2013-07-31 00:31:00,
2013-07-30 20:36:00,70.5,60.0,30.15,North,0,0.0,0.0,69,0.00,,,0.00,WUHU21623XXSP,2013-07-31 00:36:00,
2013-07-30 20:41:00,70.3,60.1,30.14,North,0,0.0,0.0,70,0.00,,,0.00,WUHU21623XXSP,2013-07-31 00:41:00,
2013-07-30 20:46:00,70.2,59.9,30.14,North,0,0.0,0.0,70,0.00,,,0.00,WUHU21623XXSP,2013-07-31 00:46:00,
2013-07-30 20:51:00,70.0,60.1,30.14,North,0,0.0,0.0,71,0.00,,,0.00,WUHU21623XXSP,2013-07-31 00:51:00,
2013-07-30 20:56:00,69.6,59.8,30.14,North,0,0.0,0.0,71,0.00,,,0.00,WUHU21623XXSP,2013-07-31 00:56:00,
2013-07-30 21:01:00,69.4,59.6,30.14,North,0,0.0,0.0,71,0.00,,,0.00,WUHU21623XXSP,2013-07-31 01:01:00,
2013-07-30 21:06:00,69.1,59.6,30.14,North,0,0.0,0.0,72,0.00,,,0.00,WUHU21623XXSP,2013-07-31 01:06:00,
2013-07-30 21:11:00,68.7,59.7,30.14,North,0,0.0,0.0,73,0.00,,,0.00,WUHU21623XXSP,2013-07-31 01:11:00,
2013-07-30 21:16:00,68.5,59.5,30.14,North,0,0.0,0.0,73,0.00,,,0.00,WUHU21623XXSP,2013-07-31 01:16:00,
2013-07-30 21:21:00,68.2,59.2,30.14,North,0,0.0,0.0,73,0.00,,,0.00,WUHU21623XXSP,2013-07-31 01:21:00,
2013-07-30 21:26:00,67.8,58.9,30.14,North,0,0.0,0.0,73,0.00,,,0.00,WUHU21623XXSP,2013-07-31 01:26:00,
2013-07-30 21:31:00,67.8,59.3,30.14,North,0,0.0,0.0,74,0.00,,,0.00,WUHU21623XXSP,2013-07-31 01:31:00,
2013-07-30 21:36:00,67.6,59.1,30.15,North,0,0.0,0.0,74,0.00,,,0.00,WUHU21623XXSP,2013-07-31 01:36:00,
2013-07-30 21:41:00,67.3,59.1,30.14,North,0,0.0,0.0,75,0.00,,,0.00,WUHU21623XXSP,2013-07-31 01:41:00,
2013-07-30 21:46:00,67.1,58.9,30.14,North,0,0.0,0.0,75,0.00,,,0.00,WUHU21623XXSP,2013-07-31 01:46:00,
2013-07-30 21:51:00,66.9,58.7,30.14,North,0,0.0,0.0,75,0.00,,,0.00,WUHU21623XXSP,2013-07-31 01:51:00,
2013-07-30 21:56:00,66.7,58.5,30.15,North,0,0.0,0.0,75,0.00,,,0.00,WUHU21623XXSP,2013-07-31 01:56:00,
2013-07-30 22:01:00,66.7,58.9,30.15,North,0,0.0,0.0,76,0.00,,,0.00,WUHU21623XXSP,2013-07-31 02:01:00,
2013-07-30 22:06:00,66.6,58.7,30.15,North,0,0.0,0.0,76,0.00,,,0.00,WUHU21623XXSP,2013-07-31 02:06:00,
2013-07-30 22:16:00,66.0,58.6,30.15,North,0,0.0,0.0,77,0.00,,,0.00,WUHU21623XXSP,2013-07-31 02:16:00,
2013-07-30 22:21:00,65.8,58.8,30.15,North,0,0.0,0.0,78,0.00,,,0.00,WUHU21623XXSP,2013-07-31 02:21:00,
2013-07-30 22:26:00,65.8,58.8,30.15,North,0,0.0,0.0,78,0.00,,,0.00,WUHU21623XXSP,2013-07-31 02:26:00,
2013-07-30 22:31:00,65.5,58.6,30.15,North,0,0.0,0.0,78,0.00,,,0.00,WUHU21623XXSP,2013-07-31 02:31:00,
2013-07-30 22:36:00,65.3,58.6,30.15,North,0,0.0,0.0,79,0.00,,,0.00,WUHU21623XXSP,2013-07-31 02:36:00,
2013-07-30 22:41:00,65.3,58.6,30.15,North,0,0.0,0.0,79,0.00,,,0.00,WUHU21623XXSP,2013-07-31 02:41:00,
2013-07-30 22:46:00,65.1,58.4,30.15,North,0,0.0,0.0,79,0.00,,,0.00,WUHU21623XXSP,2013-07-31 02:46:00,
2013-07-30 22:51:00,64.9,58.4,30.15,North,0,0.0,0.0,79,0.00,,,0.00,WUHU21623XXSP,2013-07-31 02:51:00,
2013-07-30 22:56:00,64.9,58.6,30.15,North,0,0.0,0.0,80,0.00,,,0.00,WUHU21623XXSP,2013-07-31 02:56:00,
2013-07-30 23:01:00,64.8,58.5,30.15,North,0,0.0,0.0,80,0.00,,,0.00,WUHU21623XXSP,2013-07-31 03:01:00,
2013-07-30 23:06:00,64.6,58.3,30.15,North,0,0.0,0.0,80,0.00,,,0.00,WUHU21623XXSP,2013-07-31 03:06:00,
2013-07-30 23:11:00,64.6,58.3,30.15,North,0,0.0,0.0,80,0.00,,,0.00,WUHU21623XXSP,2013-07-31 03:11:00,
2013-07-30 23:16:00,64.6,58.3,30.15,North,0,0.0,0.0,80,0.00,,,0.00,WUHU21623XXSP,2013-07-31 03:16:00,
2013-07-30 23:21:00,64.4,58.3,30.15,North,0,0.0,0.0,80,0.00,,,0.00,WUHU21623XXSP,2013-07-31 03:21:00,
2013-07-30 23:26:00,64.2,57.9,30.15,North,0,0.0,0.0,80,0.00,,,0.00,WUHU21623XXSP,2013-07-31 03:26:00,
2013-07-30 23:31:00,64.2,57.9,30.15,North,0,0.0,0.0,80,0.00,,,0.00,WUHU21623XXSP,2013-07-31 03:31:00,
2013-07-30 23:36:00,64.2,58.3,30.15,North,0,0.0,0.0,81,0.00,,,0.00,WUHU21623XXSP,2013-07-31 03:36:00,
2013-07-30 23:41:00,64.2,58.3,30.15,North,0,0.0,0.0,81,0.00,,,0.00,WUHU21623XXSP,2013-07-31 03:41:00,
2013-07-30 23:46:00,64.2,58.3,30.15,North,0,0.0,0.0,81,0.00,,,0.00,WUHU21623XXSP,2013-07-31 03:46:00,
2013-07-30 23:56:00,64.0,58.1,30.14,North,0,0.0,0.0,81,0.00,,,0.00,WUHU21623XXSP,2013-07-31 03:56:00,